Taiki Maru — JI3464 — position and weather

sailwx.info

Track history (hours):
 
Tides and Currents Weather Stations Pressure Air Temp Water Temp Dewpoint Dewpoint Depression Visibility Wind Speed Wind Dir Waves Ship Positions

Taiki Maru

Last reported at 2015-Aug-26 11:30 UTC. Time now 2015-Aug-27 20:45 UTC.
Position N 34°02' E 130°50'.

Length 93 m; draft 5.2 m.

Type: Cargo ship. MMSI: 431300622.

Date/timePositionNaut miles runAvg speedWind from/ knotsBaromVisibWave heightAir tempDewpointWater temp
2015-Aug-26 11:30N 34°02' E 130°50'1712.4
2015-Aug-26 10:11N 33°59' E 130°30'812.1
2015-Aug-26 09:33N 33°56' E 130°22'1211.7
2015-Aug-26 08:31N 33°49' E 130°09'1211.8
2015-Aug-26 07:32N 33°43' E 129°58'  
2015-Aug-23 07:16N 33°40' E 129°54'912.1
2015-Aug-23 06:30N 33°45' E 130°03'  
2015-Aug-20 15:33N 35°04' E 139°38'1313.0
2015-Aug-20 14:33N 35°15' E 139°46'1312.8
2015-Aug-20 13:33N 35°27' E 139°41'2 2.3
2015-Aug-20 12:33N 35°29' E 139°40'0 0.0
2015-Aug-20 11:33N 35°29' E 139°40'0 0.0
2015-Aug-20 10:33N 35°29' E 139°40'0 0.0
2015-Aug-20 09:33N 35°29' E 139°40'0 0.0
2015-Aug-20 08:30N 35°29' E 139°40'0 0.0
2015-Aug-20 07:33N 35°29' E 139°40'4 3.6
2015-Aug-20 06:33N 35°26' E 139°43'9 9.3
2015-Aug-20 05:33N 35°17' E 139°46'1211.8
2015-Aug-20 04:33N 35°05' E 139°44'234 8.0
2015-Aug-18 23:20N 34°07' E 135°08'2 1.8
2015-Aug-18 22:30N 34°08' E 135°07'0 0.1
2015-Aug-18 21:33N 34°08' E 135°07'0 0.0
2015-Aug-18 20:33N 34°08' E 135°07'2 2.4
2015-Aug-18 19:33N 34°08' E 135°04'7 0.3
2015-Aug-17 16:27N 34°04' E 134°56'1314.2
2015-Aug-17 15:33N 34°16' E 134°58'1313.2
2015-Aug-17 14:34N 34°27' E 135°08'1414.1
2015-Aug-17 13:34N 34°37' E 135°20'6 6.5
2015-Aug-17 12:33N 34°40' E 135°27'0 0.0
2015-Aug-17 11:33N 34°40' E 135°27'0 0.0
2015-Aug-17 10:33N 34°40' E 135°27'0 0.0
2015-Aug-17 09:33N 34°40' E 135°27'0 0.0
2015-Aug-17 08:33N 34°40' E 135°27'0 0.0
2015-Aug-17 07:32N 34°40' E 135°27'0 0.0
2015-Aug-17 06:33N 34°40' E 135°27'0 0.0
2015-Aug-17 05:25N 34°40' E 135°27'0 0.0
2015-Aug-17 04:31N 34°40' E 135°27'0 0.0
2015-Aug-17 03:33N 34°40' E 135°27'2 2.5
2015-Aug-17 02:33N 34°39' E 135°24'1110.6
2015-Aug-17 01:33N 34°31' E 135°15'1212.0
2015-Aug-17 00:33N 34°23' E 135°05'8 8.3
2015-Aug-16 23:33N 34°15' E 135°04'3 3.4
2015-Aug-16 22:34N 34°14' E 135°08'0 0.0
2015-Aug-16 21:30N 34°14' E 135°08'0 0.0
2015-Aug-16 20:33N 34°14' E 135°08'0 0.0
2015-Aug-16 19:33N 34°14' E 135°08'0 0.0
2015-Aug-16 18:30N 34°14' E 135°08'0 0.1
2015-Aug-16 17:33N 34°14' E 135°08'0 0.0
2015-Aug-16 16:33N 34°14' E 135°08'0 0.0
2015-Aug-16 15:33N 34°14' E 135°08'0 0.0
2015-Aug-16 14:33N 34°14' E 135°08'0 0.0
2015-Aug-16 13:33N 34°14' E 135°08'0 0.0
2015-Aug-16 12:33N 34°14' E 135°08'0 0.0
2015-Aug-16 11:33N 34°14' E 135°08'  
Track history (hours):
 
Tides and Currents Weather Stations Pressure Air Temp Water Temp Dewpoint Dewpoint Depression Visibility Wind Speed Wind Dir Waves Ship Positions

Taiki Maru

Last reported at 2015-Aug-26 11:30 UTC. Time now 2015-Aug-27 20:45 UTC.
Position N 34°02' E 130°50'.

Length 93 m; draft 5.2 m.

Type: Cargo ship. MMSI: 431300622.

Date/timePositionNaut miles runAvg speedWind from/ knotsBaromVisibWave heightAir tempDewpointWater temp
2015-Aug-26 11:30N 34°02' E 130°50'1712.4
2015-Aug-26 10:11N 33°59' E 130°30'812.1
2015-Aug-26 09:33N 33°56' E 130°22'1211.7
2015-Aug-26 08:31N 33°49' E 130°09'1211.8
2015-Aug-26 07:32N 33°43' E 129°58'  
2015-Aug-23 07:16N 33°40' E 129°54'912.1
2015-Aug-23 06:30N 33°45' E 130°03'  
2015-Aug-20 15:33N 35°04' E 139°38'1313.0
2015-Aug-20 14:33N 35°15' E 139°46'1312.8
2015-Aug-20 13:33N 35°27' E 139°41'2 2.3
2015-Aug-20 12:33N 35°29' E 139°40'0 0.0
2015-Aug-20 11:33N 35°29' E 139°40'0 0.0
2015-Aug-20 10:33N 35°29' E 139°40'0 0.0
2015-Aug-20 09:33N 35°29' E 139°40'0 0.0
2015-Aug-20 08:30N 35°29' E 139°40'0 0.0
2015-Aug-20 07:33N 35°29' E 139°40'4 3.6
2015-Aug-20 06:33N 35°26' E 139°43'9 9.3
2015-Aug-20 05:33N 35°17' E 139°46'1211.8
2015-Aug-20 04:33N 35°05' E 139°44'234 8.0
2015-Aug-18 23:20N 34°07' E 135°08'2 1.8
2015-Aug-18 22:30N 34°08' E 135°07'0 0.1
2015-Aug-18 21:33N 34°08' E 135°07'0 0.0
2015-Aug-18 20:33N 34°08' E 135°07'2 2.4
2015-Aug-18 19:33N 34°08' E 135°04'7 0.3
2015-Aug-17 16:27N 34°04' E 134°56'1314.2
2015-Aug-17 15:33N 34°16' E 134°58'1313.2
2015-Aug-17 14:34N 34°27' E 135°08'1414.1
2015-Aug-17 13:34N 34°37' E 135°20'6 6.5
2015-Aug-17 12:33N 34°40' E 135°27'0 0.0
2015-Aug-17 11:33N 34°40' E 135°27'0 0.0
2015-Aug-17 10:33N 34°40' E 135°27'0 0.0
2015-Aug-17 09:33N 34°40' E 135°27'0 0.0
2015-Aug-17 08:33N 34°40' E 135°27'0 0.0
2015-Aug-17 07:32N 34°40' E 135°27'0 0.0
2015-Aug-17 06:33N 34°40' E 135°27'0 0.0
2015-Aug-17 05:25N 34°40' E 135°27'0 0.0
2015-Aug-17 04:31N 34°40' E 135°27'0 0.0
2015-Aug-17 03:33N 34°40' E 135°27'2 2.5
2015-Aug-17 02:33N 34°39' E 135°24'1110.6
2015-Aug-17 01:33N 34°31' E 135°15'1212.0
2015-Aug-17 00:33N 34°23' E 135°05'8 8.3
2015-Aug-16 23:33N 34°15' E 135°04'3 3.4
2015-Aug-16 22:34N 34°14' E 135°08'0 0.0
2015-Aug-16 21:30N 34°14' E 135°08'0 0.0
2015-Aug-16 20:33N 34°14' E 135°08'0 0.0
2015-Aug-16 19:33N 34°14' E 135°08'0 0.0
2015-Aug-16 18:30N 34°14' E 135°08'0 0.1
2015-Aug-16 17:33N 34°14' E 135°08'0 0.0
2015-Aug-16 16:33N 34°14' E 135°08'0 0.0
2015-Aug-16 15:33N 34°14' E 135°08'0 0.0
2015-Aug-16 14:33N 34°14' E 135°08'0 0.0
2015-Aug-16 13:33N 34°14' E 135°08'0 0.0
2015-Aug-16 12:33N 34°14' E 135°08'0 0.0
2015-Aug-16 11:33N 34°14' E 135°08'  

Dump ship's entire track history